Time;durP1;ratioP1;P1;durP2;ratioP2;P2;SDS_P1;SDS_P2;PMS_P1;PMS_P2;Temp;Humidity;BMP_temperature;BMP_pressure;BME280_temperature;BME280_humidity;BME280_pressure;Samples;Min_cycle;Max_cycle;Signal;HPM_P1;HPM_P2
2022/06/10 00:01:52;;;;;;;4.18;1.40;;;15.90;71.70;;;;;;5015984;28;20033;-66
2022/06/10 00:04:18;;;;;;;1.67;1.20;;;15.80;71.80;;;;;;5015022;28;20040;-66
2022/06/10 00:06:44;;;;;;;2.53;1.30;;;15.80;71.90;;;;;;5014115;28;20045;-66
2022/06/10 00:09:10;;;;;;;1.88;1.20;;;15.80;71.90;;;;;;5020154;28;20046;-66
2022/06/10 00:11:35;;;;;;;3.25;1.40;;;15.80;71.90;;;;;;5015290;28;20038;-66
2022/06/10 00:14:01;;;;;;;3.70;1.50;;;15.70;72.00;;;;;;5017680;28;20417;-66
2022/06/10 00:16:26;;;;;;;2.38;1.40;;;15.70;72.10;;;;;;5017818;28;20539;-66
2022/06/10 00:18:52;;;;;;;2.13;1.40;;;15.70;72.10;;;;;;5017623;28;20496;-66
2022/06/10 00:21:19;;;;;;;3.83;1.85;;;15.60;72.10;;;;;;5017901;28;20099;-66
2022/06/10 00:23:45;;;;;;;2.78;1.50;;;15.60;72.20;;;;;;5018543;28;20034;-66
2022/06/10 00:26:12;;;;;;;4.28;1.40;;;15.50;72.30;;;;;;5016907;28;20081;-66
2022/06/10 00:28:39;;;;;;;3.35;1.45;;;15.50;72.40;;;;;;5017338;28;20052;-66
2022/06/10 00:31:05;;;;;;;1.48;1.30;;;15.50;72.40;;;;;;5018524;28;20038;-67
2022/06/10 00:33:33;;;;;;;3.85;1.52;;;15.50;72.50;;;;;;5017683;28;20385;-66
2022/06/10 00:35:59;;;;;;;1.73;1.40;;;15.40;72.50;;;;;;5017035;28;20420;-66
2022/06/10 00:38:25;;;;;;;2.67;1.50;;;15.40;72.60;;;;;;5016903;28;20038;-66
2022/06/10 00:40:54;;;;;;;1.98;1.60;;;15.40;72.60;;;;;;5017366;28;20659;-66
2022/06/10 00:43:24;;;;;;;3.80;1.52;;;15.30;72.70;;;;;;5018081;28;20034;-66
2022/06/10 00:46:11;;;;;;;2.53;1.60;;;15.30;72.80;;;;;;5016883;28;20046;-66
2022/06/10 00:48:46;;;;;;;2.72;1.75;;;15.20;73.30;;;;;;5016172;28;20041;-66
2022/06/10 00:51:21;;;;;;;3.03;1.70;;;15.20;73.70;;;;;;5016269;28;20026;-66
2022/06/10 00:54:12;;;;;;;2.13;1.80;;;15.10;72.80;;;;;;5017685;28;20026;-66
2022/06/10 00:56:43;;;;;;;2.00;1.70;;;15.00;72.80;;;;;;5017954;28;20060;-66
2022/06/10 00:59:20;;;;;;;1.73;1.60;;;15.00;72.80;;;;;;5017324;28;20092;-66
2022/06/10 01:01:46;;;;;;;2.90;1.85;;;15.00;73.10;;;;;;5009629;28;20399;-66
2022/06/10 01:04:12;;;;;;;3.22;1.80;;;14.90;72.90;;;;;;5018068;28;20029;-66
2022/06/10 01:06:38;;;;;;;4.32;1.95;;;14.90;73.10;;;;;;5016974;28;20025;-66
2022/06/10 01:09:04;;;;;;;2.25;1.85;;;14.90;73.20;;;;;;5014372;28;20038;-67
2022/06/10 01:11:59;;;;;;;3.67;1.85;;;14.90;73.20;;;;;;5011846;28;20037;-66
2022/06/10 01:14:50;;;;;;;2.13;1.70;;;14.80;74.00;;;;;;5012647;28;20038;-66
2022/06/10 01:17:45;;;;;;;2.78;1.80;;;14.80;74.40;;;;;;5014535;28;20041;-66
2022/06/10 01:20:38;;;;;;;1.50;1.40;;;14.70;73.90;;;;;;5016076;28;20551;-66
2022/06/10 01:23:10;;;;;;;1.52;1.40;;;14.70;74.20;;;;;;5012858;28;20033;-66
2022/06/10 01:25:50;;;;;;;1.52;1.42;;;14.70;73.60;;;;;;5015484;28;20029;-66
2022/06/10 01:28:34;;;;;;;3.03;1.73;;;14.70;74.60;;;;;;5012566;28;20041;-66
2022/06/10 01:31:09;;;;;;;1.95;1.67;;;14.60;74.50;;;;;;5011801;28;20103;-65
2022/06/10 01:34:03;;;;;;;2.10;1.38;;;14.60;74.20;;;;;;5015418;28;20030;-66
2022/06/10 01:36:51;;;;;;;1.52;1.42;;;14.70;74.60;;;;;;5013971;28;20034;-66
2022/06/10 01:39:34;;;;;;;2.08;1.48;;;14.60;74.50;;;;;;5015989;28;20052;-65
2022/06/10 01:42:12;;;;;;;2.42;1.38;;;14.70;74.40;;;;;;5012300;28;20029;-67
2022/06/10 01:45:02;;;;;;;3.25;1.40;;;14.60;73.80;;;;;;5017685;28;20121;-67
2022/06/10 01:47:38;;;;;;;2.47;1.30;;;14.60;74.20;;;;;;5016082;28;20033;-66
2022/06/10 01:50:18;;;;;;;1.98;1.30;;;14.60;73.50;;;;;;5011878;28;20042;-66
2022/06/10 01:52:55;;;;;;;1.48;1.30;;;14.60;73.70;;;;;;5009481;28;20112;-66
2022/06/10 01:55:38;;;;;;;1.95;1.27;;;14.60;73.70;;;;;;5015662;28;20117;-66
2022/06/10 01:58:33;;;;;;;1.83;1.30;;;14.60;74.00;;;;;;5015397;28;20033;-65
2022/06/10 02:01:05;;;;;;;3.72;1.42;;;14.70;73.90;;;;;;5009101;28;20344;-66
2022/06/10 02:03:38;;;;;;;1.60;1.50;;;14.60;73.70;;;;;;5016389;28;20065;-66
2022/06/10 02:06:10;;;;;;;2.28;1.33;;;14.60;73.50;;;;;;5016439;28;20103;-65
2022/06/10 02:08:44;;;;;;;1.50;1.38;;;14.60;74.30;;;;;;5015264;28;20508;-66
2022/06/10 02:11:13;;;;;;;1.42;1.33;;;14.60;73.90;;;;;;5009681;28;20113;-65
2022/06/10 02:13:46;;;;;;;2.00;1.67;;;14.60;73.80;;;;;;5011446;28;20026;-65
2022/06/10 02:16:17;;;;;;;1.67;1.58;;;14.60;74.00;;;;;;5012918;28;20033;-66
2022/06/10 02:18:45;;;;;;;1.92;1.40;;;14.50;73.90;;;;;;5014293;28;20590;-67
2022/06/10 02:21:33;;;;;;;2.35;1.60;;;14.50;74.00;;;;;;5014343;28;20072;-66
2022/06/10 02:24:04;;;;;;;1.73;1.40;;;14.40;74.20;;;;;;5012409;28;20030;-66
2022/06/10 02:26:34;;;;;;;3.35;1.77;;;14.40;74.20;;;;;;5013270;28;20033;-65
2022/06/10 02:29:03;;;;;;;2.25;1.70;;;14.30;74.20;;;;;;5013496;28;20333;-66
2022/06/10 02:31:48;;;;;;;1.75;1.65;;;14.30;74.40;;;;;;5014676;28;20572;-66
2022/06/10 02:34:14;;;;;;;2.65;1.90;;;14.30;74.50;;;;;;5015496;28;20070;-66
2022/06/10 02:37:23;;;;;;;1.65;1.55;;;14.20;74.20;;;;;;5014138;28;20491;-66
2022/06/10 02:40:04;;;;;;;1.70;1.60;;;14.20;75.30;;;;;;5014738;28;20037;-66
2022/06/10 02:43:02;;;;;;;2.05;1.52;;;14.10;75.00;;;;;;5013273;28;20033;-66
2022/06/10 02:45:37;;;;;;;1.85;1.70;;;14.10;75.10;;;;;;5013912;28;20460;-66
2022/06/10 02:48:14;;;;;;;2.53;1.80;;;14.10;75.30;;;;;;5013978;28;20034;-65
2022/06/10 02:50:40;;;;;;;3.83;1.55;;;14.10;75.20;;;;;;5014535;28;20033;-67
2022/06/10 02:53:08;;;;;;;1.75;1.60;;;14.00;74.90;;;;;;5012461;28;20665;-66
2022/06/10 02:55:34;;;;;;;1.90;1.45;;;14.10;75.30;;;;;;5013816;28;20039;-66
2022/06/10 03:01:14;;;;;;;3.35;1.33;;;14.00;75.30;;;;;;5012081;28;20072;-66
2022/06/10 03:04:18;;;;;;;1.50;1.40;;;14.10;75.30;;;;;;5012567;28;20037;-66
2022/06/10 03:06:46;;;;;;;2.33;1.52;;;14.10;75.40;;;;;;5013551;28;20048;-66
2022/06/10 03:09:15;;;;;;;1.75;1.65;;;14.10;75.10;;;;;;5016545;28;20095;-66
2022/06/10 03:11:57;;;;;;;2.53;1.50;;;14.10;75.20;;;;;;5015357;28;20038;-66
2022/06/10 03:14:47;;;;;;;1.40;1.30;;;14.00;75.50;;;;;;5015142;28;20033;-65
2022/06/10 03:17:31;;;;;;;1.80;1.40;;;14.00;75.30;;;;;;5016060;28;20091;-66
2022/06/10 03:20:02;;;;;;;1.70;1.60;;;14.10;75.50;;;;;;5015170;28;20033;-67
2022/06/10 03:22:59;;;;;;;2.28;1.50;;;14.00;75.10;;;;;;5016357;28;20116;-66
2022/06/10 03:25:27;;;;;;;1.50;1.40;;;14.10;75.30;;;;;;5016465;28;20033;-66
2022/06/10 03:28:34;;;;;;;1.70;1.38;;;14.00;74.70;;;;;;5018753;28;20046;-66
2022/06/10 03:31:28;;;;;;;1.58;1.48;;;14.00;75.00;;;;;;5014387;28;20496;-66
2022/06/10 03:34:16;;;;;;;1.75;1.30;;;14.00;75.00;;;;;;5016807;28;20030;-66
2022/06/10 03:36:43;;;;;;;1.50;1.40;;;14.00;74.50;;;;;;5014503;28;20533;-67
2022/06/10 03:39:09;;;;;;;2.33;1.10;;;14.00;74.30;;;;;;5015614;28;20034;-66
2022/06/10 03:41:54;;;;;;;1.42;1.33;;;13.90;74.50;;;;;;5016831;28;20076;-65
2022/06/10 03:44:20;;;;;;;1.63;1.50;;;13.90;75.20;;;;;;5016585;28;20037;-65
2022/06/10 03:46:49;;;;;;;1.30;1.20;;;13.90;75.60;;;;;;5015741;28;20030;-66
2022/06/10 03:49:18;;;;;;;1.40;1.30;;;13.90;74.70;;;;;;5015547;28;20041;-66
2022/06/10 03:51:44;;;;;;;1.45;1.35;;;13.90;74.90;;;;;;5014100;28;20048;-66
2022/06/10 03:54:13;;;;;;;1.60;1.50;;;13.80;74.80;;;;;;5016949;28;20091;-65
2022/06/10 03:56:38;;;;;;;1.48;1.20;;;13.80;75.00;;;;;;5014841;28;20374;-66
2022/06/10 03:59:04;;;;;;;2.60;1.58;;;13.80;75.20;;;;;;5016117;28;20652;-66
2022/06/10 04:01:29;;;;;;;1.40;1.30;;;13.80;75.20;;;;;;5014906;28;20091;-66
2022/06/10 04:03:55;;;;;;;1.40;1.30;;;13.80;75.30;;;;;;5014921;28;20033;-66
2022/06/10 04:06:21;;;;;;;1.60;1.50;;;13.70;75.40;;;;;;5018871;28;20038;-66
2022/06/10 04:08:46;;;;;;;1.20;1.20;;;13.80;75.60;;;;;;5016165;28;20041;-66
2022/06/10 04:11:12;;;;;;;1.30;1.20;;;13.70;75.70;;;;;;5014569;28;20385;-66
2022/06/10 04:13:38;;;;;;;1.20;1.20;;;13.70;75.70;;;;;;5014859;28;20033;-66
2022/06/10 04:16:04;;;;;;;1.50;1.40;;;13.70;75.80;;;;;;5014427;28;20065;-66
2022/06/10 04:18:30;;;;;;;1.20;1.10;;;13.80;75.80;;;;;;5015174;28;20093;-66
2022/06/10 04:20:56;;;;;;;1.30;1.20;;;13.70;75.60;;;;;;5016640;28;20493;-66
2022/06/10 04:23:21;;;;;;;1.50;1.40;;;13.80;75.80;;;;;;5013423;28;20445;-66
2022/06/10 04:25:47;;;;;;;1.55;1.20;;;13.70;75.80;;;;;;5015384;28;20038;-67
2022/06/10 04:28:13;;;;;;;2.55;1.30;;;13.80;75.80;;;;;;5003283;28;20120;-64
2022/06/10 04:30:45;;;;;;;1.35;1.25;;;13.80;75.80;;;;;;5009867;28;20029;-66
2022/06/10 04:33:12;;;;;;;3.65;1.30;;;13.80;76.10;;;;;;5010127;28;20034;-66
2022/06/10 04:35:39;;;;;;;2.05;1.27;;;13.80;76.00;;;;;;5010588;28;20026;-66
2022/06/10 04:38:05;;;;;;;1.92;1.40;;;13.80;76.00;;;;;;5006908;28;20045;-66
2022/06/10 04:40:33;;;;;;;1.40;1.30;;;13.80;76.10;;;;;;5010251;28;20033;-64
2022/06/10 04:42:59;;;;;;;2.83;1.17;;;13.80;76.30;;;;;;5012169;28;20061;-66
2022/06/10 04:45:29;;;;;;;1.98;1.15;;;13.80;76.30;;;;;;5013008;28;20117;-65
2022/06/10 04:47:55;;;;;;;2.28;1.40;;;13.80;76.50;;;;;;5015001;28;20049;-66
2022/06/10 04:50:24;;;;;;;5.10;1.40;;;13.80;76.50;;;;;;5014679;28;20041;-66
2022/06/10 04:52:49;;;;;;;4.22;1.50;;;13.80;76.80;;;;;;5014252;28;20054;-66
2022/06/10 04:55:15;;;;;;;4.65;1.50;;;13.90;76.80;;;;;;5014658;28;20079;-66
2022/06/10 04:57:41;;;;;;;3.08;1.55;;;13.90;77.00;;;;;;5011077;28;20457;-67
2022/06/10 05:00:13;;;;;;;3.63;1.80;;;13.90;77.10;;;;;;5014307;28;20049;-66
2022/06/10 05:02:39;;;;;;;1.70;1.60;;;13.90;77.50;;;;;;5013022;28;20501;-66
2022/06/10 05:05:07;;;;;;;4.10;1.92;;;13.90;77.50;;;;;;5014019;28;20521;-66
2022/06/10 05:07:32;;;;;;;1.90;1.73;;;14.00;77.70;;;;;;5015066;28;20060;-66
2022/06/10 05:09:58;;;;;;;1.65;1.55;;;14.00;77.90;;;;;;5012270;28;21726;-66
2022/06/10 05:12:24;;;;;;;2.28;1.80;;;14.00;78.00;;;;;;5010640;28;20512;-66
2022/06/10 05:14:49;;;;;;;2.55;1.65;;;14.10;78.20;;;;;;5014250;28;20037;-66
2022/06/10 05:17:15;;;;;;;2.42;1.83;;;14.10;78.20;;;;;;5013803;28;20049;-66
2022/06/10 05:19:41;;;;;;;2.83;1.65;;;14.10;78.30;;;;;;5010845;28;20060;-66
2022/06/10 05:22:06;;;;;;;2.90;1.45;;;14.20;78.40;;;;;;5012503;28;20505;-65
2022/06/10 05:24:32;;;;;;;2.75;1.73;;;14.20;78.60;;;;;;5013528;28;20052;-66
2022/06/10 05:26:59;;;;;;;2.15;1.70;;;14.30;79.80;;;;;;5011091;28;20037;-66
2022/06/10 05:29:25;;;;;;;3.10;1.80;;;14.30;79.20;;;;;;5011285;28;20091;-66
2022/06/10 05:31:51;;;;;;;6.53;1.88;;;14.40;79.40;;;;;;5010808;28;20037;-66
2022/06/10 05:37:00;;;;;;;2.03;1.83;;;14.60;79.40;;;;;;5011445;28;20507;-66
2022/06/10 05:39:26;;;;;;;2.42;1.90;;;14.60;79.30;;;;;;5010281;28;20037;-66
2022/06/10 05:42:07;;;;;;;2.83;1.60;;;14.70;80.20;;;;;;5013829;28;20037;-66
2022/06/10 05:44:35;;;;;;;2.25;2.00;;;14.80;79.40;;;;;;5013034;28;20576;-66
2022/06/10 05:47:01;;;;;;;2.95;1.80;;;14.80;79.20;;;;;;5014578;28;20045;-65
2022/06/10 05:49:28;;;;;;;2.00;1.90;;;14.90;79.00;;;;;;5013862;28;20038;-66
2022/06/10 05:51:54;;;;;;;3.33;1.85;;;15.00;79.10;;;;;;5011912;28;20109;-65
2022/06/10 05:54:21;;;;;;;2.60;2.40;;;15.00;78.90;;;;;;5015452;28;20065;-64
2022/06/10 05:56:46;;;;;;;4.00;2.17;;;15.10;79.00;;;;;;5014531;28;20503;-66
2022/06/10 05:59:16;;;;;;;2.03;1.70;;;15.10;79.20;;;;;;5011814;28;20041;-66
2022/06/10 06:01:41;;;;;;;3.92;1.60;;;15.20;79.20;;;;;;5012997;28;20125;-66
2022/06/10 06:04:07;;;;;;;3.65;1.58;;;15.30;78.80;;;;;;5011451;28;20033;-65
2022/06/10 06:06:33;;;;;;;4.97;1.80;;;15.30;78.40;;;;;;5011369;28;20069;-66
2022/06/10 06:08:59;;;;;;;4.63;1.88;;;15.40;78.60;;;;;;5013274;28;20036;-65
2022/06/10 06:11:25;;;;;;;3.10;1.65;;;15.40;78.70;;;;;;5010436;28;20033;-66
2022/06/10 06:13:50;;;;;;;3.03;1.42;;;15.50;78.40;;;;;;5008885;28;20040;-66
2022/06/10 06:16:18;;;;;;;4.72;1.75;;;15.50;78.20;;;;;;5010871;28;20374;-66
2022/06/10 06:18:44;;;;;;;2.45;1.52;;;15.60;78.20;;;;;;5009922;28;20025;-66
2022/06/10 06:21:10;;;;;;;2.22;1.52;;;15.70;78.20;;;;;;5011200;28;20415;-65
2022/06/10 06:23:36;;;;;;;2.05;1.30;;;15.80;77.70;;;;;;5012630;28;20040;-66
2022/06/10 06:26:03;;;;;;;1.90;1.00;;;15.80;77.50;;;;;;5012121;28;20045;-67
2022/06/10 06:28:29;;;;;;;3.38;1.40;;;15.90;77.50;;;;;;5009125;28;20597;-65
2022/06/10 06:30:55;;;;;;;3.88;1.60;;;16.00;77.30;;;;;;5007886;28;20108;-65
2022/06/10 06:33:21;;;;;;;1.77;1.10;;;16.10;77.00;;;;;;5010964;28;20117;-66
2022/06/10 06:35:50;;;;;;;4.35;1.38;;;16.10;76.80;;;;;;5012711;28;20083;-66
2022/06/10 06:38:16;;;;;;;4.60;1.60;;;16.20;77.00;;;;;;5008731;28;20382;-66
2022/06/10 06:40:43;;;;;;;2.22;1.50;;;16.30;76.40;;;;;;5006117;28;20535;-66
2022/06/10 06:43:09;;;;;;;2.60;1.42;;;16.40;76.10;;;;;;5014538;28;20044;-64
2022/06/10 06:45:36;;;;;;;2.83;1.45;;;16.40;75.80;;;;;;5015162;28;20034;-67
2022/06/10 06:48:10;;;;;;;4.47;1.45;;;16.50;75.40;;;;;;5014191;28;20465;-66
2022/06/10 06:50:42;;;;;;;3.08;1.35;;;16.50;74.60;;;;;;5016240;28;20087;-66
2022/06/10 06:53:08;;;;;;;2.80;1.48;;;16.60;74.50;;;;;;5012684;28;20038;-66
2022/06/10 06:55:36;;;;;;;3.55;1.50;;;16.70;74.50;;;;;;5016172;28;20052;-66
2022/06/10 06:58:03;;;;;;;3.30;1.70;;;16.70;74.20;;;;;;5015405;28;20125;-66
2022/06/10 07:00:29;;;;;;;2.55;1.60;;;16.80;73.90;;;;;;5014520;28;20033;-66
2022/06/10 07:02:54;;;;;;;5.10;2.10;;;16.90;73.60;;;;;;5012275;28;20389;-67
2022/06/10 07:05:20;;;;;;;4.38;2.85;;;16.90;73.90;;;;;;5014448;28;20124;-66
2022/06/10 07:07:46;;;;;;;7.05;3.83;;;17.00;74.00;;;;;;5012186;28;20085;-66
2022/06/10 07:10:14;;;;;;;5.10;3.17;;;17.10;73.90;;;;;;5013356;28;20048;-65
2022/06/10 07:12:40;;;;;;;5.78;3.00;;;17.20;74.20;;;;;;5005720;28;20168;-66
2022/06/10 07:15:06;;;;;;;3.47;2.67;;;17.30;73.70;;;;;;5009163;28;20051;-65
2022/06/10 07:17:35;;;;;;;3.50;2.30;;;17.40;73.60;;;;;;5012158;28;20061;-65
2022/06/10 07:20:02;;;;;;;4.32;2.50;;;17.50;73.60;;;;;;5016999;28;20475;-66
2022/06/10 07:22:28;;;;;;;3.42;1.52;;;17.60;73.00;;;;;;5014022;28;20294;-65
2022/06/10 07:24:54;;;;;;;3.80;1.63;;;17.70;73.10;;;;;;5012940;28;20253;-66
2022/06/10 07:27:20;;;;;;;2.45;1.38;;;17.70;73.00;;;;;;5016291;28;20201;-66
2022/06/10 07:29:46;;;;;;;4.50;1.58;;;17.80;72.90;;;;;;5013478;28;20123;-66
2022/06/10 07:32:11;;;;;;;3.33;1.67;;;17.90;72.60;;;;;;5014331;28;20037;-67
2022/06/10 07:34:37;;;;;;;3.08;1.75;;;18.00;72.50;;;;;;5017124;28;20041;-66
2022/06/10 07:37:04;;;;;;;4.20;1.70;;;18.10;72.00;;;;;;5015299;28;20540;-65
2022/06/10 07:39:32;;;;;;;2.90;1.40;;;18.20;71.60;;;;;;5018420;28;20053;-67
2022/06/10 07:42:00;;;;;;;2.55;1.35;;;18.30;71.30;;;;;;5014689;28;20064;-66
2022/06/10 07:44:31;;;;;;;3.70;1.38;;;18.30;70.90;;;;;;5015995;28;20033;-67
2022/06/10 07:46:59;;;;;;;2.30;1.30;;;18.40;70.70;;;;;;5017960;28;20041;-67
2022/06/10 07:49:25;;;;;;;2.90;1.40;;;18.50;71.10;;;;;;5015183;28;20095;-66
2022/06/10 07:51:51;;;;;;;3.38;1.25;;;18.60;70.70;;;;;;5016902;28;20611;-66
2022/06/10 07:54:17;;;;;;;2.08;1.13;;;18.70;70.70;;;;;;5017451;28;20391;-67
2022/06/10 07:56:43;;;;;;;3.72;1.33;;;18.70;70.20;;;;;;5016370;28;20037;-66
2022/06/10 07:59:10;;;;;;;2.70;1.05;;;18.80;69.40;;;;;;5015118;28;20041;-65
2022/06/10 08:01:36;;;;;;;3.08;1.20;;;18.90;69.00;;;;;;5027175;28;20038;-65
2022/06/10 08:04:02;;;;;;;2.03;1.17;;;19.00;68.80;;;;;;5015954;28;20107;-67
2022/06/10 08:06:29;;;;;;;2.42;1.00;;;19.10;68.60;;;;;;5015613;28;20467;-66
2022/06/10 08:08:55;;;;;;;2.55;1.10;;;19.20;67.40;;;;;;5013321;28;20460;-66
2022/06/10 08:11:22;;;;;;;2.15;1.02;;;19.20;66.50;;;;;;5010896;28;20058;-66
2022/06/10 08:13:48;;;;;;;1.92;0.98;;;19.30;66.00;;;;;;5012189;28;20160;-66
2022/06/10 08:16:14;;;;;;;2.45;1.20;;;19.40;65.40;;;;;;5013218;28;20495;-66
2022/06/10 08:18:40;;;;;;;2.17;1.00;;;19.50;65.00;;;;;;5015097;28;20121;-66
2022/06/10 08:23:51;;;;;;;1.77;0.70;;;19.60;64.50;;;;;;5017130;28;20092;-66
2022/06/10 08:26:18;;;;;;;1.13;0.75;;;19.70;64.30;;;;;;5016078;28;20041;-66
2022/06/10 08:28:46;;;;;;;3.80;1.10;;;19.80;64.30;;;;;;5016119;28;20479;-66
2022/06/10 08:31:12;;;;;;;3.25;1.17;;;19.90;63.90;;;;;;5014690;28;20061;-66
2022/06/10 08:33:38;;;;;;;3.45;1.13;;;20.00;63.40;;;;;;5017078;28;20943;-66
2022/06/10 08:36:05;;;;;;;3.25;1.20;;;20.10;62.90;;;;;;5016741;28;20037;-65
2022/06/10 08:38:32;;;;;;;2.33;0.70;;;20.20;62.70;;;;;;5016323;28;20087;-66
2022/06/10 08:41:27;;;;;;;2.92;0.98;;;20.30;61.90;;;;;;5014996;28;20028;-66
2022/06/10 08:44:10;;;;;;;2.53;1.00;;;20.40;59.50;;;;;;5013677;28;20030;-66
2022/06/10 08:46:51;;;;;;;2.15;1.00;;;20.50;60.30;;;;;;5016010;28;20061;-67
2022/06/10 08:49:44;;;;;;;2.50;1.02;;;20.60;58.90;;;;;;5013719;28;20417;-67
2022/06/10 08:52:25;;;;;;;2.92;0.88;;;20.70;59.10;;;;;;5015478;28;20061;-66
2022/06/10 08:55:05;;;;;;;4.75;1.20;;;20.80;59.40;;;;;;5013454;28;20026;-66
2022/06/10 08:57:39;;;;;;;1.50;0.80;;;20.90;58.00;;;;;;5017309;28;20533;-65
2022/06/10 09:00:18;;;;;;;2.08;0.70;;;21.00;58.10;;;;;;5015296;28;20060;-66
2022/06/10 09:02:52;;;;;;;3.17;1.25;;;21.10;57.70;;;;;;5015747;28;20215;-67
2022/06/10 09:05:25;;;;;;;2.25;1.10;;;21.30;57.10;;;;;;5012997;28;20026;-66
2022/06/10 09:07:59;;;;;;;2.75;1.00;;;21.30;57.20;;;;;;5015037;28;20034;-66
2022/06/10 09:10:46;;;;;;;2.38;1.10;;;21.40;57.60;;;;;;5013954;28;20152;-67
2022/06/10 09:13:27;;;;;;;1.92;1.25;;;21.40;57.20;;;;;;5011133;28;20033;-67
2022/06/10 09:15:57;;;;;;;1.98;1.05;;;21.50;56.90;;;;;;5013059;28;20038;-66
2022/06/10 09:18:36;;;;;;;2.35;1.30;;;21.60;57.60;;;;;;5011165;28;20053;-66
2022/06/10 09:21:24;;;;;;;2.28;1.25;;;21.70;56.80;;;;;;5011636;28;20049;-66
2022/06/10 09:23:52;;;;;;;2.95;1.08;;;21.80;56.90;;;;;;5014879;28;20033;-67
2022/06/10 09:26:42;;;;;;;4.60;1.40;;;21.80;57.60;;;;;;5010779;28;20033;-67
2022/06/10 09:29:09;;;;;;;3.10;1.35;;;21.90;55.20;;;;;;5011227;28;20030;-66
2022/06/10 09:31:58;;;;;;;1.77;1.30;;;22.00;55.90;;;;;;5008091;28;20056;-65
2022/06/10 09:34:27;;;;;;;2.88;1.33;;;22.00;55.30;;;;;;5011038;28;20037;-65
2022/06/10 09:37:11;;;;;;;3.95;1.55;;;22.00;55.00;;;;;;5010311;28;20030;-66
2022/06/10 09:43:15;;;;;;;2.50;0.90;;;22.00;52.80;;;;;;5011370;28;20413;-66
2022/06/10 09:45:44;;;;;;;2.70;1.30;;;22.00;52.40;;;;;;5014404;28;20108;-66
2022/06/10 09:48:41;;;;;;;2.85;1.38;;;22.00;53.90;;;;;;5014186;28;20041;-67
2022/06/10 09:51:10;;;;;;;1.60;1.08;;;21.90;54.40;;;;;;5014900;28;20524;-67
2022/06/10 09:54:06;;;;;;;2.80;1.20;;;21.90;55.30;;;;;;5014648;28;20717;-67
2022/06/10 09:57:14;;;;;;;2.10;1.10;;;22.00;54.80;;;;;;5011049;28;20546;-65
2022/06/10 10:00:01;;;;;;;3.42;1.20;;;22.00;54.60;;;;;;5014286;28;20134;-67
2022/06/10 10:02:48;;;;;;;2.45;1.23;;;22.20;53.90;;;;;;5012775;28;20160;-67
2022/06/10 10:05:24;;;;;;;3.33;1.08;;;22.30;52.60;;;;;;5011371;28;20034;-67
2022/06/10 10:07:51;;;;;;;2.67;0.90;;;22.40;52.50;;;;;;5013653;28;20026;-66
2022/06/10 10:10:44;;;;;;;3.55;1.38;;;22.40;53.40;;;;;;5015736;28;20045;-67
2022/06/10 10:13:09;;;;;;;2.35;0.98;;;22.40;53.00;;;;;;5012034;28;20041;-67
2022/06/10 10:15:59;;;;;;;2.80;1.20;;;22.50;54.40;;;;;;5013416;28;20049;-67
2022/06/10 10:18:48;;;;;;;3.25;1.33;;;22.50;53.20;;;;;;5013340;28;20550;-67
2022/06/10 10:21:30;;;;;;;2.95;1.20;;;22.70;50.40;;;;;;5013734;28;20042;-67
2022/06/10 10:23:58;;;;;;;1.80;1.00;;;22.70;53.30;;;;;;5015616;28;20037;-67
2022/06/10 10:26:24;;;;;;;3.25;0.75;;;22.80;53.90;;;;;;5014103;28;20033;-66
2022/06/10 10:29:03;;;;;;;2.17;1.05;;;22.90;54.30;;;;;;5015670;28;20060;-66
2022/06/10 10:31:36;;;;;;;3.22;0.90;;;23.00;53.30;;;;;;5009675;28;20041;-66
2022/06/10 10:34:04;;;;;;;3.65;1.30;;;23.10;53.00;;;;;;5008048;28;20030;-65
2022/06/10 10:36:33;;;;;;;2.03;1.00;;;23.20;51.70;;;;;;5007822;28;20025;-66
2022/06/10 10:39:35;;;;;;;1.63;1.00;;;23.20;50.80;;;;;;5012317;28;20452;-67
2022/06/10 10:42:23;;;;;;;3.45;1.33;;;23.20;49.90;;;;;;5013870;28;20034;-67
2022/06/10 10:45:00;;;;;;;1.35;0.90;;;23.20;50.30;;;;;;5013466;28;20041;-66
2022/06/10 10:47:27;;;;;;;2.60;1.00;;;23.10;50.60;;;;;;5012301;28;20390;-66
2022/06/10 10:50:19;;;;;;;1.67;0.80;;;23.10;51.90;;;;;;5013957;28;20417;-66
2022/06/10 10:52:45;;;;;;;2.38;1.15;;;23.10;51.00;;;;;;5013186;28;20068;-66
2022/06/10 10:55:14;;;;;;;2.22;1.00;;;23.10;51.40;;;;;;5016020;28;20033;-66
2022/06/10 10:57:44;;;;;;;1.50;1.08;;;23.10;51.70;;;;;;5012198;28;20057;-67
2022/06/10 11:00:10;;;;;;;1.63;1.10;;;23.00;51.00;;;;;;5011908;28;20045;-66
2022/06/10 11:02:54;;;;;;;2.63;1.05;;;23.00;51.30;;;;;;5012870;28;20460;-67
2022/06/10 11:05:21;;;;;;;3.55;0.98;;;23.00;50.90;;;;;;5011052;28;20061;-67
2022/06/10 11:08:06;;;;;;;1.80;0.90;;;23.00;51.50;;;;;;5012819;28;20381;-66
2022/06/10 11:10:39;;;;;;;1.35;0.98;;;23.00;51.10;;;;;;5011587;28;20133;-66
2022/06/10 11:13:07;;;;;;;1.88;0.80;;;23.10;50.80;;;;;;5007900;28;20037;-66
2022/06/10 11:15:34;;;;;;;1.85;0.77;;;23.10;51.00;;;;;;5010527;28;20128;-67
2022/06/10 11:18:01;;;;;;;1.10;0.82;;;23.20;50.10;;;;;;5011692;28;20379;-65
2022/06/10 11:20:32;;;;;;;1.52;0.90;;;23.20;50.20;;;;;;5010633;28;20042;-66
2022/06/10 11:23:21;;;;;;;4.05;1.17;;;23.20;50.60;;;;;;5012738;28;20453;-67
2022/06/10 11:26:11;;;;;;;3.20;1.00;;;23.20;50.10;;;;;;5014265;28;20030;-67
2022/06/10 11:28:40;;;;;;;1.42;0.80;;;23.20;50.70;;;;;;5018933;28;20049;-66
2022/06/10 11:31:22;;;;;;;2.38;0.82;;;23.10;50.30;;;;;;5016384;28;20435;-66
2022/06/10 11:33:52;;;;;;;3.20;0.93;;;23.10;49.70;;;;;;5019447;28;20137;-67
2022/06/10 11:36:23;;;;;;;1.58;0.82;;;23.00;50.40;;;;;;5016809;28;20040;-66
2022/06/10 11:39:09;;;;;;;3.47;0.90;;;22.90;50.50;;;;;;5015990;28;20029;-67
2022/06/10 11:41:35;;;;;;;1.67;0.90;;;22.80;50.90;;;;;;5014403;28;20486;-67
2022/06/10 11:44:20;;;;;;;5.45;1.20;;;22.90;51.60;;;;;;5014288;28;20041;-67
2022/06/10 11:47:01;;;;;;;;;;;22.80;50.50;;;;;;5019019;28;20439;-67
2022/06/10 11:49:32;;;;;;;1.52;0.85;;;22.90;51.60;;;;;;5015560;28;19929;-66
2022/06/10 11:52:01;;;;;;;1.50;0.73;;;22.80;50.60;;;;;;5014920;28;20030;-68
2022/06/10 11:54:49;;;;;;;1.90;0.70;;;22.80;51.30;;;;;;5014496;28;20536;-67
2022/06/10 12:00:33;;;;;;;2.25;0.80;;;23.00;50.80;;;;;;5017191;28;20942;-65
2022/06/10 12:03:05;;;;;;;1.50;0.80;;;23.00;51.30;;;;;;5017353;28;20034;-67
2022/06/10 12:05:47;;;;;;;2.00;0.70;;;23.10;51.10;;;;;;5017847;28;20038;-67
2022/06/10 12:08:26;;;;;;;3.30;0.98;;;23.20;51.50;;;;;;5018523;28;20336;-67
2022/06/10 12:11:02;;;;;;;1.27;0.80;;;23.30;50.80;;;;;;5014012;28;20037;-67
2022/06/10 12:13:46;;;;;;;2.15;0.80;;;23.50;50.50;;;;;;5016829;28;20037;-66
2022/06/10 12:16:13;;;;;;;1.50;0.60;;;23.50;50.00;;;;;;5016675;28;20539;-67
2022/06/10 12:18:46;;;;;;;2.05;0.90;;;23.60;49.70;;;;;;5018079;28;20033;-67
2022/06/10 12:21:22;;;;;;;1.20;0.85;;;23.70;48.80;;;;;;5016587;28;20052;-67
2022/06/10 12:23:48;;;;;;;2.03;0.60;;;23.70;49.30;;;;;;5016921;28;20116;-67
2022/06/10 12:26:30;;;;;;;1.17;0.70;;;23.80;49.90;;;;;;5016084;28;20045;-67
2022/06/10 12:29:13;;;;;;;1.10;0.60;;;23.90;49.90;;;;;;5015265;28;20037;-67
2022/06/10 12:31:45;;;;;;;2.40;0.80;;;24.00;50.30;;;;;;5016931;28;20040;-67
2022/06/10 12:34:49;;;;;;;1.10;0.60;;;24.10;49.70;;;;;;5018535;28;20061;-67
2022/06/10 12:37:29;;;;;;;1.45;0.68;;;24.20;49.00;;;;;;5015677;28;20076;-66
2022/06/10 12:40:20;;;;;;;2.22;0.80;;;24.30;49.10;;;;;;5013270;28;20469;-66
2022/06/10 12:42:54;;;;;;;1.48;0.80;;;24.30;49.00;;;;;;5015477;28;20046;-66
2022/06/10 12:45:25;;;;;;;1.00;0.73;;;24.40;48.90;;;;;;5013723;28;20049;-68
2022/06/10 12:47:58;;;;;;;1.73;0.70;;;24.40;49.40;;;;;;5017505;28;20076;-67
2022/06/10 12:50:28;;;;;;;2.67;0.90;;;24.40;49.00;;;;;;5020566;28;22108;-66
2022/06/10 12:53:22;;;;;;;1.05;0.63;;;24.40;48.80;;;;;;5015423;28;20030;-67
2022/06/10 12:55:50;;;;;;;1.92;0.93;;;24.50;48.30;;;;;;5012261;28;20034;-68
2022/06/10 12:58:37;;;;;;;2.25;0.90;;;24.40;48.70;;;;;;5011106;28;20119;-67
2022/06/10 13:01:27;;;;;;;1.65;0.77;;;24.50;47.40;;;;;;5014913;28;20026;-67
2022/06/10 13:04:04;;;;;;;2.22;1.00;;;24.50;48.50;;;;;;5013577;28;20037;-67
2022/06/10 13:06:29;;;;;;;0.90;0.70;;;24.50;47.60;;;;;;5013430;28;20026;-67
2022/06/10 13:09:20;;;;;;;2.33;0.88;;;24.60;48.60;;;;;;5014438;28;20037;-67
2022/06/10 13:11:53;;;;;;;3.20;1.13;;;24.60;48.20;;;;;;5012727;28;20030;-67
2022/06/10 13:14:19;;;;;;;1.58;0.90;;;24.60;48.00;;;;;;5016799;28;20352;-66
2022/06/10 13:17:17;;;;;;;2.17;0.77;;;24.70;47.40;;;;;;5015039;28;20030;-66
2022/06/10 13:19:54;;;;;;;0.80;0.77;;;24.70;45.40;;;;;;5014814;28;20034;-67
2022/06/10 13:22:20;;;;;;;1.02;0.90;;;24.60;45.80;;;;;;5013309;28;20037;-67
2022/06/10 13:24:52;;;;;;;1.60;0.88;;;24.60;46.70;;;;;;5010565;28;20049;-66
2022/06/10 13:27:33;;;;;;;1.83;0.82;;;24.40;45.80;;;;;;5012761;28;20045;-67
2022/06/10 13:30:14;;;;;;;1.20;0.80;;;24.40;46.20;;;;;;5011322;28;20153;-66
2022/06/10 13:33:13;;;;;;;1.33;0.80;;;24.40;47.20;;;;;;5008447;28;20021;-67
2022/06/10 13:35:51;;;;;;;1.35;0.93;;;24.30;47.70;;;;;;5010035;28;20053;-67